Latest Weather Observations for Griffith

IDN60801

Issued at 5:13 pm EDT Sunday 28 February 2021 (issued every 10 minutes, with the page automatically refreshed every 10 minutes)

About weather observations | Map of weather stations | Latest weather observations for NSW | Other Formats
Station Details ID: 075041 Name: GRIFFITH AIRPORT AWS Lat: -34.25 Lon: 146.07 Height: 134.0 m
Data from the previous 72 hours. | See also: Recent months at Griffith
Date/Time
EDT
Temp
°C
App
Temp
°C
Dew
Point
°C
Rel
Hum
%
Delta-T
°C
Wind Press
QNH
hPa
Press
MSL
hPa
Rain since
9am
mm
Dir  Spd
km/h
Gust
km/h
Spd
kts
Gust
kts
28/05:00pm 33.3 30.1 3.2 15 15.6 SSW 9 20 5 11 1008.6 1007.9 0.0
28/04:30pm 33.9 31.4 3.7 15 15.8 SSW 6 24 3 13 1008.9 1008.2 0.0
28/04:00pm 32.8 29.2 2.8 15 15.4 WSW 11 20 6 11 1009.2 1008.5 0.0
28/03:30pm 33.6 28.4 3.4 15 15.7 W 20 30 11 16 1009.8 1009.1 0.0
28/03:00pm 32.3 27.5 2.4 15 15.2 SSW 17 24 9 13 1010.2 1009.5 0.0
28/02:30pm 32.5 27.5 3.5 16 15.0 SW 19 28 10 15 1010.9 1010.2 0.0
28/02:00pm 32.7 28.5 3.6 16 15.1 SSW 15 26 8 14 1011.2 1010.5 0.0
28/01:30pm 32.4 29.4 4.2 17 14.8 SE 9 19 5 10 1011.3 1010.6 0.0
28/01:00pm 31.3 27.9 4.2 18 14.1 E 11 20 6 11 1011.8 1011.1 0.0
28/12:30pm 30.7 28.3 4.4 19 13.7 N 6 11 3 6 1012.2 1011.5 0.0
28/12:00pm 30.9 28.0 4.6 19 13.7 SSE 9 19 5 10 1012.5 1011.8 0.0
28/11:30am 30.5 27.8 5.7 21 13.2 ENE 9 15 5 8 1012.7 1012.0 0.0
28/11:00am 29.9 27.0 4.5 20 13.2 E 9 17 5 9 1012.9 1012.2 0.0
28/10:30am 29.0 25.7 6.4 24 12.0 E 13 17 7 9 1012.8 1012.1 0.0
28/10:00am 27.5 24.8 7.4 28 10.8 ENE 11 17 6 9 1012.8 1012.1 0.0
28/09:30am 25.4 21.4 6.6 30 9.8 E 17 22 9 12 1012.5 1011.8 0.0
28/09:00am 23.3 19.0 7.8 37 8.2 E 20 24 11 13 1012.1 1011.4 0.0
28/08:30am 21.1 16.8 7.0 40 7.2 ESE 19 22 10 12 1012.1 1011.4 0.0
28/08:00am 18.6 16.4 6.4 45 6.1 NE 7 11 4 6 1012.5 1011.8 0.0
28/07:30am 16.7 12.1 6.5 51 5.0 ESE 20 22 11 12 1012.3 1011.6 0.0
28/07:00am 16.8 12.2 6.3 50 5.2 ESE 20 24 11 13 1012.0 1011.3 0.0
28/06:30am 16.5 11.9 6.6 52 4.9 ESE 20 22 11 12 1011.7 1011.0 0.0
28/06:00am 15.9 11.8 6.1 52 4.8 ESE 17 19 9 10 1011.6 1010.9 0.0
28/05:30am 17.3 13.5 5.9 47 5.6 ESE 15 19 8 10 1011.5 1010.8 0.0
28/05:00am 17.4 13.4 6.6 49 5.4 ESE 17 19 9 10 1011.5 1010.8 0.0
28/04:30am 17.4 13.3 6.3 48 5.5 ESE 17 19 9 10 1011.5 1010.8 0.0
28/04:00am 17.1 12.8 6.9 51 5.1 ESE 19 19 10 10 1011.5 1010.8 0.0
28/03:30am 16.9 12.8 6.4 50 5.2 E 17 20 9 11 1011.5 1010.8 0.0
28/03:00am 18.0 13.6 6.5 47 5.7 ESE 19 20 10 11 1011.3 1010.6 0.0
28/02:30am 17.8 13.3 6.3 47 5.7 ESE 19 20 10 11 1011.4 1010.7 0.0
28/02:00am 19.7 15.2 6.1 41 6.8 SE 19 20 10 11 1011.4 1010.7 0.0
28/01:30am 20.6 16.0 5.4 37 7.6 SE 19 26 10 14 1011.6 1010.9 0.0
28/01:00am 20.8 16.6 5.6 37 7.6 SE 17 20 9 11 1011.6 1010.9 0.0
28/12:30am 21.4 17.3 6.1 37 7.7 SE 17 20 9 11 1011.6 1010.9 0.0
28/12:00am 19.6 15.8 6.0 41 6.8 ESE 15 17 8 9 1011.5 1010.8 0.0
 
Date/Time
EDT
Temp
°C
App
Temp
°C
Dew
Point
°C
Rel
Hum
%
Delta-T
°C
Wind Press
QNH
hPa
Press
MSL
hPa
Rain since
9am
mm
Dir  Spd
km/h
Gust
km/h
Spd
kts
Gust
kts
27/11:30pm 23.0 18.6 5.0 31 9.0 SE 17 20 9 11 1011.4 1010.7 0.0
27/11:00pm 23.3 18.5 4.8 30 9.3 SE 19 24 10 13 1011.2 1010.5 0.0
27/10:30pm 23.8 19.4 4.7 29 9.6 SSE 17 22 9 12 1011.4 1010.7 0.0
27/10:00pm 25.0 20.6 4.7 27 10.3 SSE 17 22 9 12 1011.1 1010.4 0.0
27/09:30pm 25.4 21.4 5.1 27 10.3 SSE 15 22 8 12 1010.9 1010.2 0.0
27/09:00pm 24.9 21.6 4.6 27 10.2 SSE 11 13 6 7 1010.6 1009.9 0.0
27/08:30pm 25.2 21.9 4.3 26 10.5 SSE 11 13 6 7 1010.2 1009.5 0.0
27/08:00pm 26.5 24.3 3.1 22 11.6 S 4 7 2 4 1009.9 1009.2 0.0
27/07:30pm 29.3 26.7 4.0 20 13.0 SSW 7 13 4 7 1009.5 1008.8 0.0
27/07:00pm 30.2 27.0 3.3 18 13.7 SW 9 15 5 8 1009.3 1008.6 0.0
27/06:30pm 30.3 26.0 3.4 18 13.7 WSW 15 20 8 11 1009.4 1008.7 0.0
27/06:00pm 30.4 26.3 4.2 19 13.6 SSW 15 22 8 12 1009.5 1008.8 0.0
27/05:30pm 31.2 28.0 4.9 19 13.8 SW 11 26 6 14 1009.5 1008.8 0.0
27/05:00pm 31.4 27.3 4.2 18 14.2 SW 15 28 8 15 1009.6 1008.9 0.0
27/04:30pm 30.7 26.9 3.7 18 13.9 W 13 24 7 13 1009.9 1009.2 0.0
27/04:00pm 31.1 28.2 4.8 19 13.8 SW 9 17 5 9 1010.2 1009.5 0.0
27/03:30pm 31.5 27.5 5.1 19 14.0 W 15 30 8 16 1010.6 1009.9 0.0
27/03:00pm 29.7 26.0 4.4 20 13.1 WSW 13 20 7 11 1011.0 1010.3 0.0
27/02:30pm 30.2 27.1 5.5 21 13.0 S 11 24 6 13 1011.3 1010.6 0.0
27/02:00pm 29.7 25.9 5.7 22 12.7 WSW 15 24 8 13 1011.8 1011.1 0.0
27/01:30pm 29.6 25.4 5.6 22 12.7 W 17 26 9 14 1011.8 1011.1 0.0
27/01:00pm 29.1 24.7 6.5 24 12.1 WSW 19 30 10 16 1011.9 1011.2 0.0
27/12:30pm 27.7 25.3 5.3 24 11.6 SSW 7 17 4 9 1012.3 1011.6 0.0
27/12:00pm 27.7 24.3 5.9 25 11.4 SSW 13 22 7 12 1012.4 1011.7 0.0
27/11:30am 27.2 22.7 6.0 26 11.1 SSW 19 24 10 13 1012.5 1011.8 0.0
27/11:00am 27.1 24.1 6.0 26 11.0 WSW 11 17 6 9 1012.7 1012.0 0.0
27/10:30am 26.7 24.7 4.5 24 11.3 NW 4 9 2 5 1012.8 1012.1 0.0
27/10:00am 24.8 22.6 5.1 28 10.0 ESE 6 13 3 7 1012.8 1012.1 0.0
27/09:30am 21.2 20.1 6.7 39 7.4 SE 2 7 1 4 1012.9 1012.2 0.0
27/09:00am 21.2 18.4 7.1 40 7.3 ENE 11 15 6 8 1012.9 1012.2 0.0
27/08:30am 20.4 17.1 6.4 40 7.1 E 13 17 7 9 1012.3 1011.6 0.0
27/08:00am 20.2 17.3 6.5 41 6.9 E 11 17 6 9 1011.8 1011.1 0.0
27/07:30am 17.7 14.5 6.9 49 5.4 ESE 13 15 7 8 1011.8 1011.1 0.0
27/07:00am 17.4 13.3 6.3 48 5.5 ESE 17 19 9 10 1011.7 1011.0 0.0
27/06:30am 17.5 13.8 6.4 48 5.5 E 15 19 8 10 1011.4 1010.7 0.0
27/06:00am 17.4 13.8 6.6 49 5.4 ESE 15 17 8 9 1011.4 1010.7 0.0
27/05:30am 17.3 13.2 6.2 48 5.5 ESE 17 17 9 9 1011.5 1010.8 0.0
27/05:00am 18.2 14.0 5.8 44 6.1 ESE 17 20 9 11 1011.4 1010.7 0.0
27/04:30am 18.1 13.8 5.3 43 6.2 ESE 17 19 9 10 1011.4 1010.7 0.0
27/04:00am 19.1 14.9 5.6 41 6.7 SE 17 20 9 11 1011.2 1010.5 0.0
27/03:30am 19.0 15.3 4.7 39 6.9 SE 13 15 7 8 1011.3 1010.6 0.0
27/03:00am 19.3 15.6 4.6 38 7.1 SE 13 20 7 11 1011.3 1010.6 0.0
27/02:30am 19.7 15.6 4.2 36 7.5 SE 15 20 8 11 1011.2 1010.5 0.0
27/02:00am 20.1 16.3 3.8 34 7.8 SE 13 19 7 10 1011.4 1010.7 0.0
27/01:30am 20.6 17.4 3.3 32 8.3 S 9 13 5 7 1012.0 1011.3 0.0
27/01:00am 21.3 17.0 3.0 30 8.7 S 15 22 8 12 1011.6 1010.9 0.0
27/12:30am 21.3 17.3 3.0 30 8.7 S 13 17 7 9 1011.6 1010.9 0.0
27/12:00am 21.3 17.3 3.0 30 8.7 S 13 19 7 10 1011.7 1011.0 0.0
 
Date/Time
EDT
Temp
°C
App
Temp
°C
Dew
Point
°C
Rel
Hum
%
Delta-T
°C
Wind Press
QNH
hPa
Press
MSL
hPa
Rain since
9am
mm
Dir  Spd
km/h
Gust
km/h
Spd
kts
Gust
kts
26/11:30pm 21.9 17.7 3.6 30 8.9 S 15 20 8 11 1011.4 1010.7 0.0
26/11:00pm 21.9 19.0 4.5 32 8.6 S 9 13 5 7 1011.5 1010.8 0.0
26/10:30pm 21.6 18.9 5.5 35 8.1 S 9 11 5 6 1011.7 1011.0 0.0
26/10:00pm 21.5 19.0 6.6 38 7.6 S 9 9 5 5 1011.4 1010.7 0.0
26/09:30pm 21.2 20.4 6.3 38 7.6 CALM 0 0 0 0 1011.1 1010.4 0.0
26/09:00pm 22.0 21.0 5.8 35 8.2 CALM 0 0 0 0 1010.7 1010.0 0.0
26/08:30pm 23.1 22.1 5.5 32 8.9 CALM 0 0 0 0 1010.5 1009.8 0.0
26/08:00pm 24.7 22.5 6.0 30 9.7 SSW 7 9 4 5 1010.2 1009.5 0.0
26/07:30pm 25.6 22.3 6.3 29 10.1 WSW 13 17 7 9 1010.0 1009.3 0.0
26/07:00pm 26.1 21.9 5.7 27 10.6 SW 17 20 9 11 1009.9 1009.2 0.0
26/06:30pm 26.6 23.2 6.1 27 10.7 WSW 13 22 7 12 1010.0 1009.3 0.0
26/06:00pm 27.2 22.8 6.6 27 10.9 SW 19 28 10 15 1009.9 1009.2 0.0
26/05:30pm 28.3 24.1 7.5 27 11.2 SW 19 33 10 18 1009.7 1009.0 0.0
26/05:00pm 28.4 26.0 7.1 26 11.5 SW 9 17 5 9 1009.7 1009.0 0.0
26/04:30pm 27.6 23.4 5.8 25 11.4 WSW 17 28 9 15 1009.9 1009.2 0.0
26/04:00pm 27.5 24.0 7.4 28 10.8 W 15 28 8 15 1010.1 1009.4 0.0
26/03:30pm 27.0 22.5 6.9 28 10.7 SW 20 32 11 17 1010.3 1009.6 0.0
26/03:00pm 27.0 23.6 7.5 29 10.5 SSW 15 30 8 16 1010.8 1010.1 0.0
26/02:30pm 26.5 22.7 7.5 30 10.2 SW 17 24 9 13 1011.1 1010.4 0.0
26/02:00pm 25.4 21.6 7.5 32 9.5 WSW 17 33 9 18 1011.4 1010.7 0.0
26/01:30pm 25.9 21.8 8.8 34 9.3 SW 20 30 11 16 1011.7 1011.0 0.0
26/01:00pm 25.5 21.8 8.1 33 9.4 SW 17 30 9 16 1011.9 1011.2 0.0
26/12:30pm 24.6 22.1 9.7 39 8.2 SW 13 24 7 13 1012.3 1011.6 0.0
26/12:00pm 23.2 20.7 9.6 42 7.4 SW 13 26 7 14 1012.7 1012.0 0.0
26/11:30am 22.8 21.3 10.6 46 6.8 SW 9 17 5 9 1012.8 1012.1 0.0
26/11:00am 21.5 19.8 10.0 48 6.3 WSW 9 17 5 9 1013.3 1012.6 0.0
26/10:30am 20.4 19.1 9.9 51 5.7 SSE 7 13 4 7 1013.5 1012.8 0.0
26/10:00am 19.4 17.4 10.1 55 5.0 SSW 11 17 6 9 1013.3 1012.6 0.0
26/09:30am 18.7 16.1 10.8 60 4.3 S 15 24 8 13 1013.0 1012.3 0.0
26/09:00am 17.1 13.8 9.5 61 4.0 SSE 17 22 9 12 1012.8 1012.1 0.0
26/08:30am 16.2 13.2 9.4 64 3.5 S 15 22 8 12 1012.8 1012.1 -
26/08:00am 15.3 12.1 8.5 64 3.5 SSW 15 24 8 13 1012.6 1011.9 -
26/07:30am 12.9 10.6 7.4 69 2.7 S 9 13 5 7 1012.2 1011.5 -
26/07:00am 11.7 8.5 5.1 64 3.1 N 11 13 6 7 1012.3 1011.6 -
26/06:30am 12.8 10.3 5.0 59 3.6 NNW 7 11 4 6 1011.6 1010.9 -
26/06:00am 15.5 11.5 6.8 56 4.3 S 17 20 9 11 1010.8 1010.1 -
26/05:30am 13.3 10.4 4.7 56 4.0 WSW 9 11 5 6 1010.6 1009.9 -
26/05:00am 14.0 11.0 4.0 51 4.6 WSW 9 13 5 7 1010.4 1009.7 -
26/04:30am 14.2 11.5 3.9 50 4.7 WNW 7 9 4 5 1010.2 1009.5 -
26/04:00am 15.0 12.4 3.2 45 5.4 SW 6 11 3 6 1009.9 1009.2 -
26/03:30am 15.8 13.2 3.3 43 5.7 SW 6 11 3 6 1010.2 1009.5 -
26/03:00am 15.2 13.7 3.0 44 5.6 CALM 0 6 0 3 1010.4 1009.7 0.0
26/02:30am 15.5 12.9 3.0 43 5.7 W 6 9 3 5 1010.5 1009.8 -
26/02:00am 16.1 13.3 2.9 41 6.0 WNW 7 9 4 5 1010.7 1010.0 -
26/01:30am 15.5 12.8 2.7 42 5.8 NW 6 7 3 4 1010.8 1010.1 -
26/01:00am 16.4 13.5 2.4 39 6.4 WNW 7 9 4 5 1010.9 1010.2 -
26/12:30am 16.4 13.5 2.4 39 6.3 NW 7 9 4 5 1010.9 1010.2 -
26/12:00am 19.1 14.9 1.6 31 8.0 SW 13 17 7 9 1010.8 1010.1 -
 
Date/Time
EDT
Temp
°C
App
Temp
°C
Dew
Point
°C
Rel
Hum
%
Delta-T
°C
Wind Press
QNH
hPa
Press
MSL
hPa
Rain since
9am
mm
Dir  Spd
km/h
Gust
km/h
Spd
kts
Gust
kts
25/11:30pm 20.6 15.6 1.5 28 8.8 SW 17 22 9 12 1010.7 1010.0 -
25/11:00pm 21.2 16.2 1.5 27 9.1 SW 17 22 9 12 1010.8 1010.1 -
25/10:30pm 21.7 16.3 1.4 26 9.4 SW 19 24 10 13 1010.6 1009.9 -
25/10:00pm 22.1 17.1 1.2 25 9.7 SW 17 20 9 11 1010.4 1009.7 -
25/09:30pm 22.4 17.5 2.0 26 9.6 SW 17 20 9 11 1010.1 1009.4 -
25/09:00pm 22.6 18.2 2.7 27 9.5 SW 15 17 8 9 1009.7 1009.0 0.0
25/08:30pm 23.7 19.1 3.6 27 9.9 SW 17 19 9 10 1009.4 1008.7 -
25/08:00pm 25.0 20.7 3.0 24 10.8 WSW 15 20 8 11 1009.1 1008.4 -
25/07:30pm 27.0 21.8 3.5 22 11.8 WSW 20 24 11 13 1008.7 1008.0 -
25/07:00pm 28.0 22.4 3.7 21 12.3 WSW 22 30 12 16 1008.4 1007.7 -
25/06:30pm 28.7 22.9 4.2 21 12.5 WSW 24 35 13 19 1008.3 1007.6 -
25/06:00pm 29.3 24.3 4.7 21 12.8 WSW 20 37 11 20 1008.2 1007.5 -
25/05:30pm 29.4 23.3 4.8 21 12.8 WSW 26 39 14 21 1007.9 1007.3 -

Other formats

Comma delimited format used in spreadsheet applications
http://www.bom.gov.au/fwo/IDN60801/IDN60801.95704.axf

JavaScript Object Notation format (JSON) in row-major order
http://www.bom.gov.au/fwo/IDN60801/IDN60801.95704.json

Data quality

Most of these data are generated automatically and are frequently updated. Quality checks on data are not normally performed. It is possible for incorrect values to appear. Refer to information at About Latest Weather Observations and please check the disclaimer before using these data.